sensor_id;sensor_type;location;lat;lon;timestamp;pressure;altitude;pressure_sealevel;temperature;humidity
66196;BME280;53000;45.182;5.736;2022-11-03T00:01:45;99732.91;;;14.78;63.18
66196;BME280;53000;45.182;5.736;2022-11-03T00:04:15;99747.06;;;14.88;63.31
66196;BME280;53000;45.182;5.736;2022-11-03T00:06:45;99736.19;;;14.88;63.32
66196;BME280;53000;45.182;5.736;2022-11-03T00:09:13;99746.41;;;14.86;62.94
66196;BME280;53000;45.182;5.736;2022-11-03T00:11:44;99744.75;;;14.85;62.69
66196;BME280;53000;45.182;5.736;2022-11-03T00:14:14;99739.47;;;14.84;63.06
66196;BME280;53000;45.182;5.736;2022-11-03T00:16:42;99734.41;;;14.81;62.54
66196;BME280;53000;45.182;5.736;2022-11-03T00:19:10;99733.53;;;14.80;63.32
66196;BME280;53000;45.182;5.736;2022-11-03T00:21:38;99726.56;;;14.78;63.43
66196;BME280;53000;45.182;5.736;2022-11-03T00:24:06;99720.84;;;14.72;62.99
66196;BME280;53000;45.182;5.736;2022-11-03T00:26:33;99732.91;;;14.78;62.76
66196;BME280;53000;45.182;5.736;2022-11-03T00:31:34;99745.88;;;14.76;63.29
66196;BME280;53000;45.182;5.736;2022-11-03T00:34:03;99731.75;;;14.72;63.19
66196;BME280;53000;45.182;5.736;2022-11-03T00:36:31;99713.97;;;14.62;62.61
66196;BME280;53000;45.182;5.736;2022-11-03T00:38:59;99723.00;;;14.62;62.61
66196;BME280;53000;45.182;5.736;2022-11-03T00:41:27;99722.72;;;14.57;63.25
66196;BME280;53000;45.182;5.736;2022-11-03T00:43:57;99718.28;;;14.56;63.50
66196;BME280;53000;45.182;5.736;2022-11-03T00:46:27;99710.44;;;14.53;63.34
66196;BME280;53000;45.182;5.736;2022-11-03T00:48:56;99708.56;;;14.53;63.32
66196;BME280;53000;45.182;5.736;2022-11-03T00:51:27;99703.50;;;14.50;63.80
66196;BME280;53000;45.182;5.736;2022-11-03T00:53:59;99711.47;;;14.52;63.82
66196;BME280;53000;45.182;5.736;2022-11-03T00:56:27;99696.00;;;14.52;64.14
66196;BME280;53000;45.182;5.736;2022-11-03T00:58:53;99694.84;;;14.47;63.94
66196;BME280;53000;45.182;5.736;2022-11-03T01:01:22;99690.22;;;14.47;63.52
66196;BME280;53000;45.182;5.736;2022-11-03T01:03:50;99691.28;;;14.46;63.99
66196;BME280;53000;45.182;5.736;2022-11-03T01:06:40;99683.78;;;14.48;64.22
66196;BME280;53000;45.182;5.736;2022-11-03T01:09:22;99690.22;;;14.47;63.37
66196;BME280;53000;45.182;5.736;2022-11-03T01:11:58;99676.13;;;14.44;63.44
66196;BME280;53000;45.182;5.736;2022-11-03T01:14:29;99684.69;;;14.41;63.23
66196;BME280;53000;45.182;5.736;2022-11-03T01:16:55;99679.78;;;14.36;63.70
66196;BME280;53000;45.182;5.736;2022-11-03T01:19:23;99681.00;;;14.34;63.36
66196;BME280;53000;45.182;5.736;2022-11-03T01:21:55;99672.34;;;14.30;63.31
66196;BME280;53000;45.182;5.736;2022-11-03T01:24:25;99680.91;;;14.27;64.00
66196;BME280;53000;45.182;5.736;2022-11-03T01:26:51;99673.25;;;14.22;63.53
66196;BME280;53000;45.182;5.736;2022-11-03T01:29:19;99675.22;;;14.14;63.69
66196;BME280;53000;45.182;5.736;2022-11-03T01:31:48;99669.31;;;14.10;63.40
66196;BME280;53000;45.182;5.736;2022-11-03T01:34:17;99672.59;;;14.05;63.78
66196;BME280;53000;45.182;5.736;2022-11-03T01:36:46;99670.03;;;14.04;63.84
66196;BME280;53000;45.182;5.736;2022-11-03T01:39:16;99672.94;;;14.02;63.81
66196;BME280;53000;45.182;5.736;2022-11-03T01:41:48;99666.16;;;13.98;63.97
66196;BME280;53000;45.182;5.736;2022-11-03T01:49:22;99668.22;;;13.96;63.85
66196;BME280;53000;45.182;5.736;2022-11-03T01:51:55;99658.53;;;13.94;64.21
66196;BME280;53000;45.182;5.736;2022-11-03T01:54:27;99665.69;;;13.95;64.08
66196;BME280;53000;45.182;5.736;2022-11-03T01:56:57;99654.47;;;13.89;64.40
66196;BME280;53000;45.182;5.736;2022-11-03T01:59:28;99658.13;;;13.82;64.09
66196;BME280;53000;45.182;5.736;2022-11-03T02:01:54;99648.44;;;13.79;64.20
66196;BME280;53000;45.182;5.736;2022-11-03T02:04:24;99643.53;;;13.75;64.26
66196;BME280;53000;45.182;5.736;2022-11-03T02:06:57;99641.19;;;13.72;64.20
66196;BME280;53000;45.182;5.736;2022-11-03T02:09:32;99641.25;;;13.63;64.68
66196;BME280;53000;45.182;5.736;2022-11-03T02:11:58;99646.84;;;13.62;64.91
66196;BME280;53000;45.182;5.736;2022-11-03T02:14:44;99636.66;;;13.64;64.71
66196;BME280;53000;45.182;5.736;2022-11-03T02:17:15;99622.03;;;13.65;64.91
66196;BME280;53000;45.182;5.736;2022-11-03T02:20:43;99632.03;;;13.64;65.06
66196;BME280;53000;45.182;5.736;2022-11-03T02:25:55;99618.28;;;13.66;64.69
66196;BME280;53000;45.182;5.736;2022-11-03T02:28:24;99612.47;;;13.69;64.24
66196;BME280;53000;45.182;5.736;2022-11-03T02:30:58;99609.09;;;13.67;64.32
66196;BME280;53000;45.182;5.736;2022-11-03T02:33:38;99608.22;;;13.66;64.19
66196;BME280;53000;45.182;5.736;2022-11-03T02:38:50;99590.78;;;13.61;64.40
66196;BME280;53000;45.182;5.736;2022-11-03T02:41:19;99594.72;;;13.58;64.49
66196;BME280;53000;45.182;5.736;2022-11-03T02:43:48;99587.28;;;13.52;64.44
66196;BME280;53000;45.182;5.736;2022-11-03T02:46:20;99588.28;;;13.51;64.36
66196;BME280;53000;45.182;5.736;2022-11-03T02:48:48;99580.97;;;13.52;65.03
66196;BME280;53000;45.182;5.736;2022-11-03T02:51:14;99583.88;;;13.50;64.59
66196;BME280;53000;45.182;5.736;2022-11-03T02:53:47;99572.47;;;13.55;64.78
66196;BME280;53000;45.182;5.736;2022-11-03T02:56:18;99567.84;;;13.55;64.68
66196;BME280;53000;45.182;5.736;2022-11-03T02:58:57;99557.81;;;13.56;64.44
66196;BME280;53000;45.182;5.736;2022-11-03T03:01:35;99559.41;;;13.50;64.47
66196;BME280;53000;45.182;5.736;2022-11-03T03:07:04;99548.28;;;13.37;64.95
66196;BME280;53000;45.182;5.736;2022-11-03T03:09:36;99539.47;;;13.35;64.84
66196;BME280;53000;45.182;5.736;2022-11-03T03:12:05;99537.47;;;13.28;64.55
66196;BME280;53000;45.182;5.736;2022-11-03T03:14:37;99543.06;;;13.27;64.55
66196;BME280;53000;45.182;5.736;2022-11-03T03:22:27;99537.31;;;13.22;65.27
66196;BME280;53000;45.182;5.736;2022-11-03T03:25:15;99532.72;;;13.22;65.24
66196;BME280;53000;45.182;5.736;2022-11-03T03:27:49;99533.94;;;13.20;65.52
66196;BME280;53000;45.182;5.736;2022-11-03T03:30:17;99533.06;;;13.19;65.46
66196;BME280;53000;45.182;5.736;2022-11-03T03:32:48;99531.75;;;13.15;65.38
66196;BME280;53000;45.182;5.736;2022-11-03T03:35:23;99529.16;;;13.22;65.59
66196;BME280;53000;45.182;5.736;2022-11-03T03:37:58;99528.97;;;13.23;65.02
66196;BME280;53000;45.182;5.736;2022-11-03T03:40:31;99522.53;;;13.24;64.92
66196;BME280;53000;45.182;5.736;2022-11-03T03:43:00;99507.59;;;13.20;64.98
66196;BME280;53000;45.182;5.736;2022-11-03T03:45:29;99520.81;;;13.23;64.96
66196;BME280;53000;45.182;5.736;2022-11-03T03:47:58;99518.31;;;13.22;64.96
66196;BME280;53000;45.182;5.736;2022-11-03T03:50:27;99520.16;;;13.21;64.68
66196;BME280;53000;45.182;5.736;2022-11-03T03:52:56;99515.94;;;13.19;64.96
66196;BME280;53000;45.182;5.736;2022-11-03T03:55:36;99523.06;;;13.20;65.40
66196;BME280;53000;45.182;5.736;2022-11-03T03:58:06;99513.22;;;13.19;64.92
66196;BME280;53000;45.182;5.736;2022-11-03T04:00:33;99506.94;;;13.18;65.22
66196;BME280;53000;45.182;5.736;2022-11-03T04:03:01;99511.31;;;13.19;65.16
66196;BME280;53000;45.182;5.736;2022-11-03T04:05:28;99506.75;;;13.20;65.00
66196;BME280;53000;45.182;5.736;2022-11-03T04:07:57;99504.88;;;13.20;65.13
66196;BME280;53000;45.182;5.736;2022-11-03T04:10:24;99508.59;;;13.19;65.03
66196;BME280;53000;45.182;5.736;2022-11-03T04:12:50;99507.78;;;13.19;64.91
66196;BME280;53000;45.182;5.736;2022-11-03T04:15:36;99512.38;;;13.18;64.93
66196;BME280;53000;45.182;5.736;2022-11-03T04:18:23;99514.25;;;13.18;64.79
66196;BME280;53000;45.182;5.736;2022-11-03T04:21:11;99513.38;;;13.17;64.69
66196;BME280;53000;45.182;5.736;2022-11-03T04:24:05;99510.00;;;13.15;64.38
66196;BME280;53000;45.182;5.736;2022-11-03T04:26:31;99508.03;;;13.09;64.25
66196;BME280;53000;45.182;5.736;2022-11-03T04:28:59;99507.69;;;13.04;64.59
66196;BME280;53000;45.182;5.736;2022-11-03T04:31:27;99510.28;;;12.97;64.76
66196;BME280;53000;45.182;5.736;2022-11-03T04:33:57;99514.56;;;12.92;65.69
66196;BME280;53000;45.182;5.736;2022-11-03T04:36:24;99510.34;;;12.89;65.14
66196;BME280;53000;45.182;5.736;2022-11-03T04:38:50;99509.50;;;12.88;64.88
66196;BME280;53000;45.182;5.736;2022-11-03T04:41:22;99514.25;;;12.86;65.20
66196;BME280;53000;45.182;5.736;2022-11-03T04:43:52;99508.84;;;12.86;65.07
66196;BME280;53000;45.182;5.736;2022-11-03T04:46:29;99499.00;;;12.85;65.22
66196;BME280;53000;45.182;5.736;2022-11-03T04:48:59;99496.13;;;12.79;64.97
66196;BME280;53000;45.182;5.736;2022-11-03T04:51:30;99496.31;;;12.77;65.73
66196;BME280;53000;45.182;5.736;2022-11-03T04:54:08;99490.91;;;12.77;65.29
66196;BME280;53000;45.182;5.736;2022-11-03T04:56:35;99495.28;;;12.78;64.93
66196;BME280;53000;45.182;5.736;2022-11-03T04:59:16;99487.31;;;12.77;65.10
66196;BME280;53000;45.182;5.736;2022-11-03T05:01:44;99483.63;;;12.69;65.03
66196;BME280;53000;45.182;5.736;2022-11-03T05:04:12;99482.97;;;12.67;65.39
66196;BME280;53000;45.182;5.736;2022-11-03T05:06:38;99481.94;;;12.68;65.26
66196;BME280;53000;45.182;5.736;2022-11-03T05:09:16;99479.03;;;12.70;64.97
66196;BME280;53000;45.182;5.736;2022-11-03T05:11:44;99473.47;;;12.63;65.02
66196;BME280;53000;45.182;5.736;2022-11-03T05:14:23;99468.91;;;12.64;65.18
66196;BME280;53000;45.182;5.736;2022-11-03T05:16:53;99464.31;;;12.64;65.20
66196;BME280;53000;45.182;5.736;2022-11-03T05:19:23;99459.72;;;12.65;65.20
66196;BME280;53000;45.182;5.736;2022-11-03T05:21:52;99458.88;;;12.64;65.44
66196;BME280;53000;45.182;5.736;2022-11-03T05:24:23;99456.88;;;12.58;65.34
66196;BME280;53000;45.182;5.736;2022-11-03T05:26:53;99447.91;;;12.58;65.36
66196;BME280;53000;45.182;5.736;2022-11-03T05:31:51;99425.38;;;12.49;65.29
66196;BME280;53000;45.182;5.736;2022-11-03T05:37:19;99415.91;;;12.45;65.52
66196;BME280;53000;45.182;5.736;2022-11-03T05:39:47;99403.03;;;12.39;65.28
66196;BME280;53000;45.182;5.736;2022-11-03T05:42:25;99396.97;;;12.28;65.46
66196;BME280;53000;45.182;5.736;2022-11-03T05:44:55;99406.50;;;12.24;65.88
66196;BME280;53000;45.182;5.736;2022-11-03T05:47:38;99404.81;;;12.23;65.66
66196;BME280;53000;45.182;5.736;2022-11-03T05:50:20;99402.44;;;12.20;65.94
66196;BME280;53000;45.182;5.736;2022-11-03T05:53:00;99398.72;;;12.21;65.93
66196;BME280;53000;45.182;5.736;2022-11-03T05:55:34;99402.59;;;12.19;66.16
66196;BME280;53000;45.182;5.736;2022-11-03T05:58:14;99402.81;;;12.17;66.37
66196;BME280;53000;45.182;5.736;2022-11-03T06:00:42;99396.34;;;12.18;66.08
66196;BME280;53000;45.182;5.736;2022-11-03T06:03:14;99385.19;;;12.13;67.02
66196;BME280;53000;45.182;5.736;2022-11-03T06:05:47;99388.91;;;12.12;66.01
66196;BME280;53000;45.182;5.736;2022-11-03T06:08:39;99388.72;;;12.14;66.92
66196;BME280;53000;45.182;5.736;2022-11-03T06:11:07;99400.44;;;12.14;65.91
66196;BME280;53000;45.182;5.736;2022-11-03T06:13:38;99386.38;;;12.11;66.68
66196;BME280;53000;45.182;5.736;2022-11-03T06:18:55;99382.31;;;12.15;66.65
66196;BME280;53000;45.182;5.736;2022-11-03T06:21:24;99380.44;;;12.15;66.19
66196;BME280;53000;45.182;5.736;2022-11-03T06:23:51;99379.75;;;12.13;65.92
66196;BME280;53000;45.182;5.736;2022-11-03T06:26:23;99383.69;;;12.11;66.27
66196;BME280;53000;45.182;5.736;2022-11-03T06:28:50;99384.00;;;12.07;66.14
66196;BME280;53000;45.182;5.736;2022-11-03T06:31:32;99378.91;;;12.13;65.92
66196;BME280;53000;45.182;5.736;2022-11-03T06:34:00;99387.06;;;12.13;66.10
66196;BME280;53000;45.182;5.736;2022-11-03T06:36:37;99367.41;;;12.11;65.97
66196;BME280;53000;45.182;5.736;2022-11-03T06:39:19;99375.53;;;12.11;66.08
66196;BME280;53000;45.182;5.736;2022-11-03T06:41:50;99374.31;;;12.13;66.39
66196;BME280;53000;45.182;5.736;2022-11-03T06:44:37;99367.03;;;12.14;65.90
66196;BME280;53000;45.182;5.736;2022-11-03T06:47:29;99390.91;;;12.18;66.08
66196;BME280;53000;45.182;5.736;2022-11-03T06:49:59;99400.38;;;12.22;65.98
66196;BME280;53000;45.182;5.736;2022-11-03T06:52:29;99385.63;;;12.25;66.21
66196;BME280;53000;45.182;5.736;2022-11-03T06:55:21;99378.66;;;12.31;66.38
66196;BME280;53000;45.182;5.736;2022-11-03T06:57:56;99380.31;;;12.32;66.17
66196;BME280;53000;45.182;5.736;2022-11-03T07:00:28;99377.94;;;12.37;65.89
66196;BME280;53000;45.182;5.736;2022-11-03T07:05:40;99368.66;;;12.54;66.35
66196;BME280;53000;45.182;5.736;2022-11-03T07:08:40;99375.03;;;12.61;65.68
66196;BME280;53000;45.182;5.736;2022-11-03T07:11:23;99370.28;;;12.63;65.68
66196;BME280;53000;45.182;5.736;2022-11-03T07:13:53;99384.84;;;12.71;66.29
66196;BME280;53000;45.182;5.736;2022-11-03T07:16:29;99397.34;;;12.80;65.94
66196;BME280;53000;45.182;5.736;2022-11-03T07:18:58;99384.25;;;12.83;65.74
66196;BME280;53000;45.182;5.736;2022-11-03T07:21:31;99379.38;;;12.94;66.71
66196;BME280;53000;45.182;5.736;2022-11-03T07:24:03;99379.44;;;13.08;65.93
66196;BME280;53000;45.182;5.736;2022-11-03T07:26:31;99373.19;;;13.23;66.33
66196;BME280;53000;45.182;5.736;2022-11-03T07:28:59;99379.72;;;13.37;65.45
66196;BME280;53000;45.182;5.736;2022-11-03T07:31:25;99375.91;;;13.46;64.83
66196;BME280;53000;45.182;5.736;2022-11-03T07:33:57;99368.09;;;13.58;65.33
66196;BME280;53000;45.182;5.736;2022-11-03T07:36:24;99369.91;;;13.65;64.78
66196;BME280;53000;45.182;5.736;2022-11-03T07:38:52;99364.56;;;13.72;64.60
66196;BME280;53000;45.182;5.736;2022-11-03T07:41:31;99373.19;;;13.76;64.22
66196;BME280;53000;45.182;5.736;2022-11-03T07:43:58;99369.91;;;13.80;64.00
66196;BME280;53000;45.182;5.736;2022-11-03T07:46:25;99365.22;;;13.89;63.94
66196;BME280;53000;45.182;5.736;2022-11-03T07:49:00;99362.50;;;13.89;63.70
66196;BME280;53000;45.182;5.736;2022-11-03T07:51:31;99373.19;;;13.90;64.57
66196;BME280;53000;45.182;5.736;2022-11-03T07:54:14;99376.25;;;14.02;63.69
66196;BME280;53000;45.182;5.736;2022-11-03T07:56:42;99372.03;;;14.15;63.98
66196;BME280;53000;45.182;5.736;2022-11-03T08:01:44;99369.44;;;14.43;63.00
66196;BME280;53000;45.182;5.736;2022-11-03T08:04:16;99370.81;;;14.53;62.75
66196;BME280;53000;45.182;5.736;2022-11-03T08:06:44;99366.94;;;14.63;62.84
66196;BME280;53000;45.182;5.736;2022-11-03T08:09:09;99369.72;;;14.69;61.83
66196;BME280;53000;45.182;5.736;2022-11-03T08:11:34;99371.44;;;14.70;62.42
66196;BME280;53000;45.182;5.736;2022-11-03T08:14:02;99366.63;;;14.72;62.71
66196;BME280;53000;45.182;5.736;2022-11-03T08:16:28;99373.25;;;14.85;62.29
66196;BME280;53000;45.182;5.736;2022-11-03T08:18:53;99371.91;;;14.96;62.10
66196;BME280;53000;45.182;5.736;2022-11-03T08:21:19;99367.53;;;15.01;61.68
66196;BME280;53000;45.182;5.736;2022-11-03T08:23:46;99356.91;;;15.06;61.55
66196;BME280;53000;45.182;5.736;2022-11-03T08:26:14;99359.22;;;15.09;61.28
66196;BME280;53000;45.182;5.736;2022-11-03T08:28:42;99355.00;;;15.07;61.80
66196;BME280;53000;45.182;5.736;2022-11-03T08:31:10;99342.16;;;15.01;61.48
66196;BME280;53000;45.182;5.736;2022-11-03T08:33:38;99337.34;;;15.03;61.71
66196;BME280;53000;45.182;5.736;2022-11-03T08:36:06;99334.03;;;15.07;62.09
66196;BME280;53000;45.182;5.736;2022-11-03T08:38:35;99340.78;;;15.11;61.60
66196;BME280;53000;45.182;5.736;2022-11-03T08:41:08;99328.03;;;15.19;61.65
66196;BME280;53000;45.182;5.736;2022-11-03T08:43:38;99307.97;;;15.26;61.63
66196;BME280;53000;45.182;5.736;2022-11-03T08:46:06;99298.56;;;15.36;61.39
66196;BME280;53000;45.182;5.736;2022-11-03T08:48:34;99292.31;;;15.42;61.54
66196;BME280;53000;45.182;5.736;2022-11-03T08:50:59;99287.97;;;15.47;61.21
66196;BME280;53000;45.182;5.736;2022-11-03T08:53:25;99297.66;;;15.57;60.97
66196;BME280;53000;45.182;5.736;2022-11-03T08:55:54;99269.75;;;15.61;60.80
66196;BME280;53000;45.182;5.736;2022-11-03T08:58:24;99265.19;;;15.68;60.14
66196;BME280;53000;45.182;5.736;2022-11-03T09:00:54;99261.06;;;15.79;60.50
66196;BME280;53000;45.182;5.736;2022-11-03T09:03:24;99259.06;;;16.01;60.24
66196;BME280;53000;45.182;5.736;2022-11-03T09:05:57;99278.47;;;16.33;60.15
66196;BME280;53000;45.182;5.736;2022-11-03T09:08:27;99279.38;;;16.73;59.61
66196;BME280;53000;45.182;5.736;2022-11-03T09:10:52;99257.94;;;16.97;58.30
66196;BME280;53000;45.182;5.736;2022-11-03T09:13:18;99257.47;;;17.13;58.52
66196;BME280;53000;45.182;5.736;2022-11-03T09:15:45;99241.44;;;17.37;58.28
66196;BME280;53000;45.182;5.736;2022-11-03T09:18:13;99237.78;;;17.70;57.69
66196;BME280;53000;45.182;5.736;2022-11-03T09:20:38;99238.22;;;18.12;57.95
66196;BME280;53000;45.182;5.736;2022-11-03T09:23:09;99238.75;;;18.59;55.63
66196;BME280;53000;45.182;5.736;2022-11-03T09:25:41;99227.19;;;19.07;53.39
66196;BME280;53000;45.182;5.736;2022-11-03T09:28:10;99218.44;;;19.35;54.72
66196;BME280;53000;45.182;5.736;2022-11-03T09:30:42;99221.78;;;19.37;53.04
66196;BME280;53000;45.182;5.736;2022-11-03T09:33:08;99211.34;;;19.28;54.32
66196;BME280;53000;45.182;5.736;2022-11-03T09:35:33;99203.78;;;19.23;52.21
66196;BME280;53000;45.182;5.736;2022-11-03T09:38:01;99196.09;;;19.13;53.41
66196;BME280;53000;45.182;5.736;2022-11-03T09:40:26;99193.78;;;19.10;51.58
66196;BME280;53000;45.182;5.736;2022-11-03T09:42:52;99192.81;;;19.05;53.43
66196;BME280;53000;45.182;5.736;2022-11-03T09:45:21;99185.72;;;18.97;53.18
66196;BME280;53000;45.182;5.736;2022-11-03T09:47:47;99181.59;;;18.88;53.47
66196;BME280;53000;45.182;5.736;2022-11-03T09:50:22;99172.56;;;18.80;53.64
66196;BME280;53000;45.182;5.736;2022-11-03T09:52:48;99157.28;;;18.66;52.69
66196;BME280;53000;45.182;5.736;2022-11-03T09:55:23;99163.28;;;18.56;53.84
66196;BME280;53000;45.182;5.736;2022-11-03T09:58:00;99153.66;;;18.47;53.69
66196;BME280;53000;45.182;5.736;2022-11-03T10:00:26;99144.13;;;18.25;52.93
66196;BME280;53000;45.182;5.736;2022-11-03T10:02:54;99134.63;;;18.02;53.86
66196;BME280;53000;45.182;5.736;2022-11-03T10:05:37;99131.13;;;17.82;53.29
66196;BME280;53000;45.182;5.736;2022-11-03T10:08:31;99136.56;;;17.50;53.63
66196;BME280;53000;45.182;5.736;2022-11-03T10:11:01;99150.97;;;17.32;54.37
66196;BME280;53000;45.182;5.736;2022-11-03T10:13:37;99143.69;;;17.12;55.17
66196;BME280;53000;45.182;5.736;2022-11-03T10:16:14;99153.41;;;16.95;55.77
66196;BME280;53000;45.182;5.736;2022-11-03T10:18:43;99145.25;;;16.82;55.98
66196;BME280;53000;45.182;5.736;2022-11-03T10:21:32;99151.94;;;16.72;56.19
66196;BME280;53000;45.182;5.736;2022-11-03T10:24:02;99155.53;;;16.60;56.32
66196;BME280;53000;45.182;5.736;2022-11-03T10:26:27;99156.16;;;16.48;56.77
66196;BME280;53000;45.182;5.736;2022-11-03T10:31:31;99155.94;;;16.30;56.67
66196;BME280;53000;45.182;5.736;2022-11-03T10:33:57;99159.75;;;16.22;57.04
66196;BME280;53000;45.182;5.736;2022-11-03T10:36:38;99159.13;;;16.13;56.90
66196;BME280;53000;45.182;5.736;2022-11-03T10:39:23;99168.75;;;16.03;57.49
66196;BME280;53000;45.182;5.736;2022-11-03T10:41:58;99157.59;;;15.98;57.96
66196;BME280;53000;45.182;5.736;2022-11-03T10:44:27;99144.38;;;15.88;58.47
66196;BME280;53000;45.182;5.736;2022-11-03T10:46:57;99141.22;;;15.84;58.80
66196;BME280;53000;45.182;5.736;2022-11-03T10:49:23;99136.56;;;15.85;59.14
66196;BME280;53000;45.182;5.736;2022-11-03T10:51:53;99140.56;;;15.89;59.32
66196;BME280;53000;45.182;5.736;2022-11-03T10:54:25;99138.69;;;15.89;59.28
66196;BME280;53000;45.182;5.736;2022-11-03T10:56:52;99142.03;;;15.91;59.36
66196;BME280;53000;45.182;5.736;2022-11-03T10:59:19;99118.53;;;15.90;59.54
66196;BME280;53000;45.182;5.736;2022-11-03T11:01:48;99126.09;;;15.88;59.77
66196;BME280;53000;45.182;5.736;2022-11-03T11:04:17;99124.41;;;15.87;59.68
66196;BME280;53000;45.182;5.736;2022-11-03T11:06:48;99124.63;;;15.79;60.57
66196;BME280;53000;45.182;5.736;2022-11-03T11:09:25;99116.63;;;15.78;60.57
66196;BME280;53000;45.182;5.736;2022-11-03T11:12:04;99122.53;;;15.81;60.67
66196;BME280;53000;45.182;5.736;2022-11-03T11:16:59;99107.38;;;15.79;61.15
66196;BME280;53000;45.182;5.736;2022-11-03T11:19:26;99089.16;;;15.79;61.48
66196;BME280;53000;45.182;5.736;2022-11-03T11:32:58;99047.09;;;15.60;61.56
66196;BME280;53000;45.182;5.736;2022-11-03T11:37:51;99026.31;;;15.59;61.55
66196;BME280;53000;45.182;5.736;2022-11-03T11:51:36;99022.34;;;15.68;61.81
66196;BME280;53000;45.182;5.736;2022-11-03T11:54:08;99017.09;;;15.67;61.64
66196;BME280;53000;45.182;5.736;2022-11-03T11:56:45;99015.19;;;15.67;62.02
66196;BME280;53000;45.182;5.736;2022-11-03T11:59:20;98999.47;;;15.69;62.21
66196;BME280;53000;45.182;5.736;2022-11-03T12:01:50;99001.38;;;15.76;61.72
66196;BME280;53000;45.182;5.736;2022-11-03T12:04:21;98985.22;;;15.74;62.15
66196;BME280;53000;45.182;5.736;2022-11-03T12:06:48;98993.19;;;15.76;62.45
66196;BME280;53000;45.182;5.736;2022-11-03T12:09:15;98985.00;;;15.76;62.14
66196;BME280;53000;45.182;5.736;2022-11-03T12:16:58;98960.84;;;15.66;63.55
66196;BME280;53000;45.182;5.736;2022-11-03T12:19:46;98977.84;;;15.68;63.02
66196;BME280;53000;45.182;5.736;2022-11-03T12:25:03;98973.88;;;15.70;62.44
66196;BME280;53000;45.182;5.736;2022-11-03T12:30:11;98945.53;;;15.65;63.42
66196;BME280;53000;45.182;5.736;2022-11-03T12:32:43;98933.34;;;15.61;63.45
66196;BME280;53000;45.182;5.736;2022-11-03T12:35:09;98924.72;;;15.64;64.06
66196;BME280;53000;45.182;5.736;2022-11-03T12:37:37;98909.63;;;15.68;63.76
66196;BME280;53000;45.182;5.736;2022-11-03T12:40:11;98901.69;;;15.73;64.46
66196;BME280;53000;45.182;5.736;2022-11-03T12:42:41;98909.44;;;15.76;64.51
66196;BME280;53000;45.182;5.736;2022-11-03T12:45:12;98896.84;;;15.82;63.84
66196;BME280;53000;45.182;5.736;2022-11-03T12:47:38;98892.84;;;15.84;64.13
66196;BME280;53000;45.182;5.736;2022-11-03T12:50:04;98893.91;;;15.90;64.52
66196;BME280;53000;45.182;5.736;2022-11-03T12:52:32;98894.72;;;15.90;64.28
66196;BME280;53000;45.182;5.736;2022-11-03T12:55:00;98889.91;;;15.86;64.23
66196;BME280;53000;45.182;5.736;2022-11-03T12:57:31;98877.94;;;15.87;64.60
66196;BME280;53000;45.182;5.736;2022-11-03T12:59:58;98877.13;;;15.80;64.43
66196;BME280;53000;45.182;5.736;2022-11-03T13:02:26;98863.69;;;15.71;64.61
66196;BME280;53000;45.182;5.736;2022-11-03T13:05:01;98857.16;;;15.66;65.25
66196;BME280;53000;45.182;5.736;2022-11-03T13:07:26;98856.94;;;15.67;65.21
66196;BME280;53000;45.182;5.736;2022-11-03T13:09:51;98857.56;;;15.69;65.53
66196;BME280;53000;45.182;5.736;2022-11-03T13:12:34;98832.59;;;15.66;65.87
66196;BME280;53000;45.182;5.736;2022-11-03T13:15:06;98834.91;;;15.69;65.94
66196;BME280;53000;45.182;5.736;2022-11-03T13:17:32;98828.66;;;15.75;65.41
66196;BME280;53000;45.182;5.736;2022-11-03T13:19:58;98829.03;;;15.79;65.36
66196;BME280;53000;45.182;5.736;2022-11-03T13:22:26;98837.22;;;15.85;65.29
66196;BME280;53000;45.182;5.736;2022-11-03T13:24:56;98823.13;;;15.88;65.24
66196;BME280;53000;45.182;5.736;2022-11-03T13:27:24;98820.84;;;15.85;66.10
66196;BME280;53000;45.182;5.736;2022-11-03T13:29:56;98818.34;;;15.84;64.94
66196;BME280;53000;45.182;5.736;2022-11-03T13:32:29;98818.53;;;15.82;66.43
66196;BME280;53000;45.182;5.736;2022-11-03T13:34:54;98808.09;;;15.72;66.35
66196;BME280;53000;45.182;5.736;2022-11-03T13:37:23;98785.84;;;15.62;66.25
66196;BME280;53000;45.182;5.736;2022-11-03T13:39:58;98775.56;;;15.58;67.16
66196;BME280;53000;45.182;5.736;2022-11-03T13:42:25;98766.34;;;15.52;66.64
66196;BME280;53000;45.182;5.736;2022-11-03T13:44:54;98782.28;;;15.48;66.59
66196;BME280;53000;45.182;5.736;2022-11-03T13:47:21;98786.28;;;15.46;67.25
66196;BME280;53000;45.182;5.736;2022-11-03T13:49:48;98773.47;;;15.53;66.16
66196;BME280;53000;45.182;5.736;2022-11-03T13:52:19;98757.50;;;15.57;66.57
66196;BME280;53000;45.182;5.736;2022-11-03T13:54:44;98755.19;;;15.60;65.76
66196;BME280;53000;45.182;5.736;2022-11-03T13:57:15;98755.81;;;15.62;67.02
66196;BME280;53000;45.182;5.736;2022-11-03T13:59:40;98757.72;;;15.62;66.61
66196;BME280;53000;45.182;5.736;2022-11-03T14:02:05;98758.09;;;15.65;66.48
66196;BME280;53000;45.182;5.736;2022-11-03T14:04:31;98757.69;;;15.68;67.14
66196;BME280;53000;45.182;5.736;2022-11-03T14:06:58;98754.34;;;15.66;67.07
66196;BME280;53000;45.182;5.736;2022-11-03T14:09:24;98751.63;;;15.66;67.70
66196;BME280;53000;45.182;5.736;2022-11-03T14:11:49;98730.41;;;15.68;66.89
66196;BME280;53000;45.182;5.736;2022-11-03T14:14:33;98740.91;;;15.65;67.63
66196;BME280;53000;45.182;5.736;2022-11-03T14:17:03;98735.28;;;15.60;67.84
66196;BME280;53000;45.182;5.736;2022-11-03T14:19:29;98747.66;;;15.56;68.11
66196;BME280;53000;45.182;5.736;2022-11-03T14:21:54;98755.63;;;15.50;68.50
66196;BME280;53000;45.182;5.736;2022-11-03T14:24:22;98734.03;;;15.42;68.88
66196;BME280;53000;45.182;5.736;2022-11-03T14:26:48;98751.28;;;15.36;67.76
66196;BME280;53000;45.182;5.736;2022-11-03T14:29:16;98766.16;;;15.33;68.52
66196;BME280;53000;45.182;5.736;2022-11-03T14:31:41;98751.28;;;15.29;69.04
66196;BME280;53000;45.182;5.736;2022-11-03T14:34:07;98766.41;;;15.32;69.28
66196;BME280;53000;45.182;5.736;2022-11-03T14:36:32;98763.84;;;15.37;69.52